Coral Harbour Airport
CYZS : now visible

Airfield :











YOU CAN JOIN US ON...

 
LOGIN :

Register | Disclaimer

   EN    FR    IT 

 









Legend :    VFR   Marginal VFR   IFR   Intensive IFR   Very Intensive IFR
Visi :
Ceiling :
>= 8 km
>= 3000ft
5 to 8 km
1000 to 3000 ft
1500m to 5 km
500 to 1000 ft
800 to 1500m
200 to 500 ft
< 800m
< 200 ft
Symbols :   Thunderstorms  Fog  Heavy snow  Heavy precipitations  Wind > 20 kt






- Airport Elevation : 210 ft
- IATA code : YZS


CYZS - Coral Harbour

CURRENT METAR :
  • 150800Z 23015KT 15SM -SN DRSN BKN018 BKN100 M19/M21 A2962 RMK SC6AC1 SLP040

EXPIRED METARs :
  • 150700Z 22017KT 12SM -SN DRSN BKN020 BKN100 M19/M21 A2961 RMK SC5AC2 SLP039

TAF TAF CYZS
Valid from the 15 at 07:00 until the 15 at 19:00 UTC


150638Z 1507/1519 22015KT P6SM -SN SCT020 BKN100
TEMPO 1507/1512 5SM -SN BKN020 OVC080
BECMG 1510/1512 29008KT
FM151200 29008KT P6SM BKN030
TEMPO 1512/1519 4SM -SN BKN020
BECMG 1513/1515 02008KT RMK NXT FCST BY 151300Z



MET'MAP, your aeronautical weather chart ! - Copyright ORBIFLY December 2007 - Disclaimer

ORBIFLY MET'MAP TEAM :

Programming & Development : Alexandra Zaïnal
Concept & original design : Baudouin d'Aumeries
Assistance for programming : Marc-Olivier Méhu
Technical & hardware support : Manuel Goepfert

Contact : metmap@orbifly.com




SOURCES & CREDITS :

   NOAA       Earth
Advisory